sensor_id;sensor_type;location;lat;lon;timestamp;P1;durP1;ratioP1;P2;durP2;ratioP2
15082;SDS011;7640;53.116;6.878;2023-06-19T00:00:05;15.93;;;11.20;;
15082;SDS011;7640;53.116;6.878;2023-06-19T00:02:40;14.93;;;11.68;;
15082;SDS011;7640;53.116;6.878;2023-06-19T00:05:10;16.37;;;11.53;;
15082;SDS011;7640;53.116;6.878;2023-06-19T00:07:40;16.20;;;11.40;;
15082;SDS011;7640;53.116;6.878;2023-06-19T00:10:09;17.83;;;12.50;;
15082;SDS011;7640;53.116;6.878;2023-06-19T00:12:38;19.73;;;12.23;;
15082;SDS011;7640;53.116;6.878;2023-06-19T00:15:07;15.68;;;11.85;;
15082;SDS011;7640;53.116;6.878;2023-06-19T00:17:36;19.07;;;11.87;;
15082;SDS011;7640;53.116;6.878;2023-06-19T00:20:07;16.30;;;11.73;;
15082;SDS011;7640;53.116;6.878;2023-06-19T00:22:40;19.33;;;12.00;;
15082;SDS011;7640;53.116;6.878;2023-06-19T00:25:09;15.40;;;10.93;;
15082;SDS011;7640;53.116;6.878;2023-06-19T00:27:37;13.05;;;11.38;;
15082;SDS011;7640;53.116;6.878;2023-06-19T00:30:07;13.93;;;11.47;;
15082;SDS011;7640;53.116;6.878;2023-06-19T00:32:36;16.87;;;12.00;;
15082;SDS011;7640;53.116;6.878;2023-06-19T00:35:15;11.93;;;10.63;;
15082;SDS011;7640;53.116;6.878;2023-06-19T00:37:44;12.07;;;9.67;;
15082;SDS011;7640;53.116;6.878;2023-06-19T00:40:16;15.23;;;11.10;;
15082;SDS011;7640;53.116;6.878;2023-06-19T00:42:54;18.53;;;12.80;;
15082;SDS011;7640;53.116;6.878;2023-06-19T00:45:23;13.83;;;10.20;;
15082;SDS011;7640;53.116;6.878;2023-06-19T00:47:55;11.27;;;10.27;;
15082;SDS011;7640;53.116;6.878;2023-06-19T00:50:29;10.37;;;9.27;;
15082;SDS011;7640;53.116;6.878;2023-06-19T00:52:58;10.73;;;9.63;;
15082;SDS011;7640;53.116;6.878;2023-06-19T00:55:29;11.40;;;10.40;;
15082;SDS011;7640;53.116;6.878;2023-06-19T00:57:58;13.10;;;10.40;;
15082;SDS011;7640;53.116;6.878;2023-06-19T01:00:28;13.40;;;9.87;;
15082;SDS011;7640;53.116;6.878;2023-06-19T01:02:57;13.07;;;11.00;;
15082;SDS011;7640;53.116;6.878;2023-06-19T01:05:27;15.33;;;11.40;;
15082;SDS011;7640;53.116;6.878;2023-06-19T01:07:58;14.97;;;10.47;;
15082;SDS011;7640;53.116;6.878;2023-06-19T01:10:32;13.75;;;10.43;;
15082;SDS011;7640;53.116;6.878;2023-06-19T01:13:07;10.53;;;9.40;;
15082;SDS011;7640;53.116;6.878;2023-06-19T01:15:41;11.37;;;10.13;;
15082;SDS011;7640;53.116;6.878;2023-06-19T01:18:10;11.53;;;9.17;;
15082;SDS011;7640;53.116;6.878;2023-06-19T01:20:41;11.43;;;9.60;;
15082;SDS011;7640;53.116;6.878;2023-06-19T01:23:11;10.03;;;8.90;;
15082;SDS011;7640;53.116;6.878;2023-06-19T01:25:42;10.63;;;9.53;;
15082;SDS011;7640;53.116;6.878;2023-06-19T01:28:11;10.80;;;9.70;;
15082;SDS011;7640;53.116;6.878;2023-06-19T01:30:41;10.63;;;9.67;;
15082;SDS011;7640;53.116;6.878;2023-06-19T01:33:15;10.40;;;9.40;;
15082;SDS011;7640;53.116;6.878;2023-06-19T01:35:49;10.50;;;9.43;;
15082;SDS011;7640;53.116;6.878;2023-06-19T01:38:20;10.60;;;9.00;;
15082;SDS011;7640;53.116;6.878;2023-06-19T01:40:52;9.40;;;8.50;;
15082;SDS011;7640;53.116;6.878;2023-06-19T01:43:22;10.53;;;9.47;;
15082;SDS011;7640;53.116;6.878;2023-06-19T01:45:52;10.87;;;8.93;;
15082;SDS011;7640;53.116;6.878;2023-06-19T01:48:20;10.93;;;9.90;;
15082;SDS011;7640;53.116;6.878;2023-06-19T01:50:49;11.57;;;9.60;;
15082;SDS011;7640;53.116;6.878;2023-06-19T01:53:20;11.07;;;9.23;;
15082;SDS011;7640;53.116;6.878;2023-06-19T01:55:48;9.60;;;8.70;;
15082;SDS011;7640;53.116;6.878;2023-06-19T01:58:17;9.90;;;9.00;;
15082;SDS011;7640;53.116;6.878;2023-06-19T02:00:45;10.67;;;9.77;;
15082;SDS011;7640;53.116;6.878;2023-06-19T02:03:14;10.37;;;9.27;;
15082;SDS011;7640;53.116;6.878;2023-06-19T02:05:43;9.90;;;9.00;;
15082;SDS011;7640;53.116;6.878;2023-06-19T02:08:11;9.93;;;8.93;;
15082;SDS011;7640;53.116;6.878;2023-06-19T02:10:41;10.47;;;9.47;;
15082;SDS011;7640;53.116;6.878;2023-06-19T02:13:10;10.47;;;9.47;;
15082;SDS011;7640;53.116;6.878;2023-06-19T02:15:42;10.17;;;9.17;;
15082;SDS011;7640;53.116;6.878;2023-06-19T02:18:10;10.52;;;9.52;;
15082;SDS011;7640;53.116;6.878;2023-06-19T02:20:39;10.93;;;9.90;;
15082;SDS011;7640;53.116;6.878;2023-06-19T02:23:07;10.50;;;9.40;;
15082;SDS011;7640;53.116;6.878;2023-06-19T02:25:36;11.07;;;10.00;;
15082;SDS011;7640;53.116;6.878;2023-06-19T02:28:06;11.25;;;10.05;;
15082;SDS011;7640;53.116;6.878;2023-06-19T02:30:34;10.85;;;9.88;;
15082;SDS011;7640;53.116;6.878;2023-06-19T02:33:03;10.03;;;9.10;;
15082;SDS011;7640;53.116;6.878;2023-06-19T02:35:31;10.17;;;9.27;;
15082;SDS011;7640;53.116;6.878;2023-06-19T02:38:00;10.23;;;9.17;;
15082;SDS011;7640;53.116;6.878;2023-06-19T02:40:31;10.83;;;9.73;;
15082;SDS011;7640;53.116;6.878;2023-06-19T02:42:59;10.07;;;9.17;;
15082;SDS011;7640;53.116;6.878;2023-06-19T02:45:29;9.77;;;8.87;;
15082;SDS011;7640;53.116;6.878;2023-06-19T02:47:57;10.17;;;9.17;;
15082;SDS011;7640;53.116;6.878;2023-06-19T02:50:26;10.27;;;9.37;;
15082;SDS011;7640;53.116;6.878;2023-06-19T02:52:55;9.93;;;9.00;;
15082;SDS011;7640;53.116;6.878;2023-06-19T02:55:23;9.67;;;8.77;;
15082;SDS011;7640;53.116;6.878;2023-06-19T02:57:52;9.90;;;8.90;;
15082;SDS011;7640;53.116;6.878;2023-06-19T03:00:21;9.80;;;8.90;;
15082;SDS011;7640;53.116;6.878;2023-06-19T03:02:51;9.40;;;8.40;;
15082;SDS011;7640;53.116;6.878;2023-06-19T03:05:20;9.80;;;8.80;;
15082;SDS011;7640;53.116;6.878;2023-06-19T03:07:48;9.83;;;8.93;;
15082;SDS011;7640;53.116;6.878;2023-06-19T03:10:17;11.33;;;8.93;;
15082;SDS011;7640;53.116;6.878;2023-06-19T03:12:45;10.17;;;9.00;;
15082;SDS011;7640;53.116;6.878;2023-06-19T03:15:14;9.93;;;9.03;;
15082;SDS011;7640;53.116;6.878;2023-06-19T03:17:43;10.40;;;9.30;;
15082;SDS011;7640;53.116;6.878;2023-06-19T03:20:13;10.20;;;9.20;;
15082;SDS011;7640;53.116;6.878;2023-06-19T03:22:42;10.40;;;9.40;;
15082;SDS011;7640;53.116;6.878;2023-06-19T03:25:10;10.07;;;9.07;;
15082;SDS011;7640;53.116;6.878;2023-06-19T03:27:39;10.17;;;9.17;;
15082;SDS011;7640;53.116;6.878;2023-06-19T03:30:15;10.27;;;9.37;;
15082;SDS011;7640;53.116;6.878;2023-06-19T03:32:45;10.30;;;9.40;;
15082;SDS011;7640;53.116;6.878;2023-06-19T03:35:14;10.63;;;9.53;;
15082;SDS011;7640;53.116;6.878;2023-06-19T03:37:43;10.33;;;9.23;;
15082;SDS011;7640;53.116;6.878;2023-06-19T03:40:11;10.25;;;9.25;;
15082;SDS011;7640;53.116;6.878;2023-06-19T03:42:40;9.87;;;8.97;;
15082;SDS011;7640;53.116;6.878;2023-06-19T03:45:09;10.27;;;9.25;;
15082;SDS011;7640;53.116;6.878;2023-06-19T03:47:38;10.18;;;9.27;;
15082;SDS011;7640;53.116;6.878;2023-06-19T03:50:07;10.20;;;9.20;;
15082;SDS011;7640;53.116;6.878;2023-06-19T03:52:47;11.47;;;9.77;;
15082;SDS011;7640;53.116;6.878;2023-06-19T03:55:16;10.00;;;9.00;;
15082;SDS011;7640;53.116;6.878;2023-06-19T03:57:45;11.53;;;9.60;;
15082;SDS011;7640;53.116;6.878;2023-06-19T04:00:14;9.97;;;8.97;;
15082;SDS011;7640;53.116;6.878;2023-06-19T04:02:44;10.23;;;9.17;;
15082;SDS011;7640;53.116;6.878;2023-06-19T04:05:13;10.20;;;9.30;;
15082;SDS011;7640;53.116;6.878;2023-06-19T04:07:43;9.50;;;8.60;;
15082;SDS011;7640;53.116;6.878;2023-06-19T04:10:12;10.17;;;9.10;;
15082;SDS011;7640;53.116;6.878;2023-06-19T04:12:41;9.20;;;8.40;;
15082;SDS011;7640;53.116;6.878;2023-06-19T04:15:11;9.60;;;8.70;;
15082;SDS011;7640;53.116;6.878;2023-06-19T04:17:40;9.57;;;8.57;;
15082;SDS011;7640;53.116;6.878;2023-06-19T04:20:09;9.30;;;8.50;;
15082;SDS011;7640;53.116;6.878;2023-06-19T04:22:39;9.83;;;8.93;;
15082;SDS011;7640;53.116;6.878;2023-06-19T04:25:09;8.87;;;8.00;;
15082;SDS011;7640;53.116;6.878;2023-06-19T04:27:39;9.65;;;8.73;;
15082;SDS011;7640;53.116;6.878;2023-06-19T04:30:11;8.60;;;7.77;;
15082;SDS011;7640;53.116;6.878;2023-06-19T04:32:40;9.07;;;8.27;;
15082;SDS011;7640;53.116;6.878;2023-06-19T04:35:09;8.60;;;7.80;;
15082;SDS011;7640;53.116;6.878;2023-06-19T04:37:38;8.97;;;8.17;;
15082;SDS011;7640;53.116;6.878;2023-06-19T04:40:07;8.68;;;7.70;;
15082;SDS011;7640;53.116;6.878;2023-06-19T04:42:37;8.83;;;8.03;;
15082;SDS011;7640;53.116;6.878;2023-06-19T04:45:07;7.33;;;6.40;;
15082;SDS011;7640;53.116;6.878;2023-06-19T04:47:36;8.33;;;6.50;;
15082;SDS011;7640;53.116;6.878;2023-06-19T04:50:18;7.53;;;6.77;;
15082;SDS011;7640;53.116;6.878;2023-06-19T04:52:47;8.13;;;6.10;;
15082;SDS011;7640;53.116;6.878;2023-06-19T04:55:18;6.40;;;5.80;;
15082;SDS011;7640;53.116;6.878;2023-06-19T04:57:49;6.60;;;5.93;;
15082;SDS011;7640;53.116;6.878;2023-06-19T05:00:17;7.20;;;5.80;;
15082;SDS011;7640;53.116;6.878;2023-06-19T05:02:48;5.82;;;5.30;;
15082;SDS011;7640;53.116;6.878;2023-06-19T05:05:17;5.00;;;4.60;;
15082;SDS011;7640;53.116;6.878;2023-06-19T05:07:49;6.00;;;4.50;;
15082;SDS011;7640;53.116;6.878;2023-06-19T05:10:18;7.32;;;4.90;;
15082;SDS011;7640;53.116;6.878;2023-06-19T05:12:47;4.90;;;3.95;;
15082;SDS011;7640;53.116;6.878;2023-06-19T05:15:17;4.88;;;4.20;;
15082;SDS011;7640;53.116;6.878;2023-06-19T05:17:45;5.72;;;3.95;;
15082;SDS011;7640;53.116;6.878;2023-06-19T05:20:14;4.97;;;4.47;;
15082;SDS011;7640;53.116;6.878;2023-06-19T05:22:42;4.45;;;3.92;;
15082;SDS011;7640;53.116;6.878;2023-06-19T05:25:11;5.35;;;4.28;;
15082;SDS011;7640;53.116;6.878;2023-06-19T05:27:40;4.78;;;4.32;;
15082;SDS011;7640;53.116;6.878;2023-06-19T05:30:10;5.80;;;4.60;;
15082;SDS011;7640;53.116;6.878;2023-06-19T05:32:40;5.82;;;4.78;;
15082;SDS011;7640;53.116;6.878;2023-06-19T05:35:08;4.78;;;4.05;;
15082;SDS011;7640;53.116;6.878;2023-06-19T05:37:41;4.60;;;4.20;;
15082;SDS011;7640;53.116;6.878;2023-06-19T05:40:10;4.43;;;4.03;;
15082;SDS011;7640;53.116;6.878;2023-06-19T05:42:40;6.07;;;4.43;;
15082;SDS011;7640;53.116;6.878;2023-06-19T05:45:10;5.45;;;4.40;;
15082;SDS011;7640;53.116;6.878;2023-06-19T05:47:39;5.13;;;4.63;;
15082;SDS011;7640;53.116;6.878;2023-06-19T05:50:08;4.78;;;4.18;;
15082;SDS011;7640;53.116;6.878;2023-06-19T05:52:37;5.13;;;4.63;;
15082;SDS011;7640;53.116;6.878;2023-06-19T05:55:09;5.25;;;4.75;;
15082;SDS011;7640;53.116;6.878;2023-06-19T05:57:38;5.78;;;5.28;;
15082;SDS011;7640;53.116;6.878;2023-06-19T06:00:07;5.28;;;4.78;;
15082;SDS011;7640;53.116;6.878;2023-06-19T06:02:40;5.25;;;4.75;;
15082;SDS011;7640;53.116;6.878;2023-06-19T06:05:09;5.47;;;4.97;;
15082;SDS011;7640;53.116;6.878;2023-06-19T06:07:38;7.35;;;5.90;;
15082;SDS011;7640;53.116;6.878;2023-06-19T06:10:07;6.32;;;5.72;;
15082;SDS011;7640;53.116;6.878;2023-06-19T06:12:36;6.00;;;5.40;;
15082;SDS011;7640;53.116;6.878;2023-06-19T06:15:06;6.40;;;5.80;;
15082;SDS011;7640;53.116;6.878;2023-06-19T06:17:36;6.07;;;5.57;;
15082;SDS011;7640;53.116;6.878;2023-06-19T06:20:05;5.95;;;5.07;;
15082;SDS011;7640;53.116;6.878;2023-06-19T06:22:39;6.35;;;5.68;;
15082;SDS011;7640;53.116;6.878;2023-06-19T06:25:08;6.25;;;5.65;;
15082;SDS011;7640;53.116;6.878;2023-06-19T06:27:39;5.78;;;5.28;;
15082;SDS011;7640;53.116;6.878;2023-06-19T06:30:09;5.93;;;5.43;;
15082;SDS011;7640;53.116;6.878;2023-06-19T06:32:40;7.75;;;6.90;;
15082;SDS011;7640;53.116;6.878;2023-06-19T06:35:10;6.53;;;5.88;;
15082;SDS011;7640;53.116;6.878;2023-06-19T06:37:38;6.63;;;6.07;;
15082;SDS011;7640;53.116;6.878;2023-06-19T06:40:07;6.93;;;6.05;;
15082;SDS011;7640;53.116;6.878;2023-06-19T06:42:37;7.53;;;5.63;;
15082;SDS011;7640;53.116;6.878;2023-06-19T06:45:06;6.72;;;5.30;;
15082;SDS011;7640;53.116;6.878;2023-06-19T06:47:36;6.03;;;5.40;;
15082;SDS011;7640;53.116;6.878;2023-06-19T06:50:08;5.75;;;5.25;;
15082;SDS011;7640;53.116;6.878;2023-06-19T06:52:37;4.85;;;4.45;;
15082;SDS011;7640;53.116;6.878;2023-06-19T06:55:06;5.68;;;4.63;;
15082;SDS011;7640;53.116;6.878;2023-06-19T06:57:36;4.88;;;4.47;;
15082;SDS011;7640;53.116;6.878;2023-06-19T07:00:05;4.88;;;4.40;;
15082;SDS011;7640;53.116;6.878;2023-06-19T07:02:37;5.18;;;4.78;;
15082;SDS011;7640;53.116;6.878;2023-06-19T07:05:08;4.43;;;4.13;;
15082;SDS011;7640;53.116;6.878;2023-06-19T07:07:38;5.32;;;4.78;;
15082;SDS011;7640;53.116;6.878;2023-06-19T07:10:07;5.55;;;5.05;;
15082;SDS011;7640;53.116;6.878;2023-06-19T07:12:44;6.28;;;5.70;;
15082;SDS011;7640;53.116;6.878;2023-06-19T07:15:13;6.78;;;6.18;;
15082;SDS011;7640;53.116;6.878;2023-06-19T07:17:43;9.45;;;7.25;;
15082;SDS011;7640;53.116;6.878;2023-06-19T07:20:13;8.30;;;7.53;;
15082;SDS011;7640;53.116;6.878;2023-06-19T07:22:43;10.20;;;9.20;;
15082;SDS011;7640;53.116;6.878;2023-06-19T07:25:12;10.85;;;9.88;;
15082;SDS011;7640;53.116;6.878;2023-06-19T07:27:41;9.93;;;9.02;;
15082;SDS011;7640;53.116;6.878;2023-06-19T07:30:11;11.60;;;10.40;;
15082;SDS011;7640;53.116;6.878;2023-06-19T07:32:42;11.77;;;10.68;;
15082;SDS011;7640;53.116;6.878;2023-06-19T07:35:11;11.63;;;10.63;;
15082;SDS011;7640;53.116;6.878;2023-06-19T07:37:41;14.82;;;12.25;;
15082;SDS011;7640;53.116;6.878;2023-06-19T07:40:10;15.73;;;14.00;;
15082;SDS011;7640;53.116;6.878;2023-06-19T07:42:39;15.68;;;13.60;;
15082;SDS011;7640;53.116;6.878;2023-06-19T07:45:10;17.25;;;13.73;;
15082;SDS011;7640;53.116;6.878;2023-06-19T07:47:42;13.90;;;12.50;;
15082;SDS011;7640;53.116;6.878;2023-06-19T07:50:11;13.73;;;11.88;;
15082;SDS011;7640;53.116;6.878;2023-06-19T07:52:41;13.75;;;12.27;;
15082;SDS011;7640;53.116;6.878;2023-06-19T07:55:09;14.25;;;11.98;;
15082;SDS011;7640;53.116;6.878;2023-06-19T07:57:38;13.82;;;12.32;;
15082;SDS011;7640;53.116;6.878;2023-06-19T08:00:07;12.00;;;10.80;;
15082;SDS011;7640;53.116;6.878;2023-06-19T08:02:39;13.05;;;11.82;;
15082;SDS011;7640;53.116;6.878;2023-06-19T08:05:09;12.30;;;11.10;;
15082;SDS011;7640;53.116;6.878;2023-06-19T08:07:39;11.40;;;10.15;;
15082;SDS011;7640;53.116;6.878;2023-06-19T08:10:09;12.68;;;11.38;;
15082;SDS011;7640;53.116;6.878;2023-06-19T08:12:40;10.93;;;9.88;;
15082;SDS011;7640;53.116;6.878;2023-06-19T08:15:12;10.52;;;9.52;;
15082;SDS011;7640;53.116;6.878;2023-06-19T08:17:41;10.05;;;9.05;;
15082;SDS011;7640;53.116;6.878;2023-06-19T08:20:11;10.90;;;8.07;;
15082;SDS011;7640;53.116;6.878;2023-06-19T08:22:41;8.95;;;7.53;;
15082;SDS011;7640;53.116;6.878;2023-06-19T08:25:10;7.50;;;6.70;;
15082;SDS011;7640;53.116;6.878;2023-06-19T08:27:38;7.68;;;6.88;;
15082;SDS011;7640;53.116;6.878;2023-06-19T08:30:07;7.93;;;7.00;;
15082;SDS011;7640;53.116;6.878;2023-06-19T08:32:36;7.65;;;6.93;;
15082;SDS011;7640;53.116;6.878;2023-06-19T08:35:05;7.18;;;6.38;;
15082;SDS011;7640;53.116;6.878;2023-06-19T08:37:34;6.80;;;6.10;;
15082;SDS011;7640;53.116;6.878;2023-06-19T08:40:04;6.28;;;5.78;;
15082;SDS011;7640;53.116;6.878;2023-06-19T08:42:36;6.30;;;5.70;;
15082;SDS011;7640;53.116;6.878;2023-06-19T08:45:06;7.80;;;6.15;;
15082;SDS011;7640;53.116;6.878;2023-06-19T08:47:36;7.13;;;5.50;;
15082;SDS011;7640;53.116;6.878;2023-06-19T08:50:05;6.55;;;5.90;;
15082;SDS011;7640;53.116;6.878;2023-06-19T08:52:35;7.22;;;5.80;;
15082;SDS011;7640;53.116;6.878;2023-06-19T08:55:05;5.70;;;5.07;;
15082;SDS011;7640;53.116;6.878;2023-06-19T08:57:35;8.73;;;4.75;;
15082;SDS011;7640;53.116;6.878;2023-06-19T09:00:05;6.05;;;4.78;;
15082;SDS011;7640;53.116;6.878;2023-06-19T09:02:38;5.50;;;5.00;;
15082;SDS011;7640;53.116;6.878;2023-06-19T09:05:10;4.90;;;4.40;;
15082;SDS011;7640;53.116;6.878;2023-06-19T09:07:42;5.22;;;4.70;;
15082;SDS011;7640;53.116;6.878;2023-06-19T09:10:14;5.22;;;4.82;;
15082;SDS011;7640;53.116;6.878;2023-06-19T09:12:44;5.78;;;5.22;;
15082;SDS011;7640;53.116;6.878;2023-06-19T09:15:29;5.90;;;5.30;;
15082;SDS011;7640;53.116;6.878;2023-06-19T09:18:03;5.80;;;5.20;;
15082;SDS011;7640;53.116;6.878;2023-06-19T09:20:34;6.25;;;5.60;;
15082;SDS011;7640;53.116;6.878;2023-06-19T09:23:08;5.95;;;5.35;;
15082;SDS011;7640;53.116;6.878;2023-06-19T09:25:48;5.95;;;5.40;;
15082;SDS011;7640;53.116;6.878;2023-06-19T09:28:19;7.35;;;5.90;;
15082;SDS011;7640;53.116;6.878;2023-06-19T09:30:53;7.03;;;6.32;;
15082;SDS011;7640;53.116;6.878;2023-06-19T09:33:24;7.20;;;6.50;;
15082;SDS011;7640;53.116;6.878;2023-06-19T09:35:54;6.72;;;6.05;;
15082;SDS011;7640;53.116;6.878;2023-06-19T09:38:26;7.90;;;6.20;;
15082;SDS011;7640;53.116;6.878;2023-06-19T09:41:00;6.35;;;5.78;;
15082;SDS011;7640;53.116;6.878;2023-06-19T09:43:33;7.45;;;6.72;;
15082;SDS011;7640;53.116;6.878;2023-06-19T09:46:05;6.15;;;5.53;;
15082;SDS011;7640;53.116;6.878;2023-06-19T09:48:34;6.47;;;5.88;;
15082;SDS011;7640;53.116;6.878;2023-06-19T09:51:09;6.68;;;6.05;;
15082;SDS011;7640;53.116;6.878;2023-06-19T09:53:46;6.47;;;5.88;;
15082;SDS011;7640;53.116;6.878;2023-06-19T09:56:18;6.95;;;5.85;;
15082;SDS011;7640;53.116;6.878;2023-06-19T09:58:49;7.47;;;5.97;;
15082;SDS011;7640;53.116;6.878;2023-06-19T10:01:20;8.50;;;6.32;;
15082;SDS011;7640;53.116;6.878;2023-06-19T10:03:50;7.28;;;5.95;;
15082;SDS011;7640;53.116;6.878;2023-06-19T10:06:31;7.20;;;6.60;;
15082;SDS011;7640;53.116;6.878;2023-06-19T10:09:06;7.65;;;6.70;;
15082;SDS011;7640;53.116;6.878;2023-06-19T10:11:50;7.15;;;6.47;;
15082;SDS011;7640;53.116;6.878;2023-06-19T10:14:19;8.13;;;7.32;;
15082;SDS011;7640;53.116;6.878;2023-06-19T10:16:49;9.15;;;8.23;;
15082;SDS011;7640;53.116;6.878;2023-06-19T10:19:17;9.23;;;7.75;;
15082;SDS011;7640;53.116;6.878;2023-06-19T10:21:52;10.23;;;8.50;;
15082;SDS011;7640;53.116;6.878;2023-06-19T10:24:26;9.55;;;7.97;;
15082;SDS011;7640;53.116;6.878;2023-06-19T10:26:58;9.35;;;8.02;;
15082;SDS011;7640;53.116;6.878;2023-06-19T10:29:37;9.30;;;8.30;;
15082;SDS011;7640;53.116;6.878;2023-06-19T10:32:13;10.32;;;7.22;;
15082;SDS011;7640;53.116;6.878;2023-06-19T10:34:44;7.85;;;7.03;;
15082;SDS011;7640;53.116;6.878;2023-06-19T10:37:15;8.40;;;7.60;;
15082;SDS011;7640;53.116;6.878;2023-06-19T10:39:44;7.95;;;6.80;;
15082;SDS011;7640;53.116;6.878;2023-06-19T10:42:14;7.57;;;6.90;;
15082;SDS011;7640;53.116;6.878;2023-06-19T10:44:42;7.78;;;6.57;;
15082;SDS011;7640;53.116;6.878;2023-06-19T10:47:10;6.57;;;5.95;;
15082;SDS011;7640;53.116;6.878;2023-06-19T10:49:39;6.32;;;5.72;;
15082;SDS011;7640;53.116;6.878;2023-06-19T10:52:09;6.55;;;5.85;;
15082;SDS011;7640;53.116;6.878;2023-06-19T10:54:38;6.57;;;5.97;;
15082;SDS011;7640;53.116;6.878;2023-06-19T10:57:07;6.07;;;5.57;;
15082;SDS011;7640;53.116;6.878;2023-06-19T10:59:38;7.57;;;6.85;;
15082;SDS011;7640;53.116;6.878;2023-06-19T11:02:07;7.47;;;6.65;;
15082;SDS011;7640;53.116;6.878;2023-06-19T11:04:37;7.22;;;6.53;;
15082;SDS011;7640;53.116;6.878;2023-06-19T11:07:06;7.28;;;6.57;;
15082;SDS011;7640;53.116;6.878;2023-06-19T11:09:35;7.43;;;6.72;;
15082;SDS011;7640;53.116;6.878;2023-06-19T11:12:04;9.10;;;7.88;;
15082;SDS011;7640;53.116;6.878;2023-06-19T11:14:35;8.93;;;8.02;;
15082;SDS011;7640;53.116;6.878;2023-06-19T11:17:08;9.75;;;8.30;;
15082;SDS011;7640;53.116;6.878;2023-06-19T11:19:37;10.70;;;8.27;;
15082;SDS011;7640;53.116;6.878;2023-06-19T11:22:08;9.52;;;7.60;;
15082;SDS011;7640;53.116;6.878;2023-06-19T11:24:42;8.88;;;7.95;;
15082;SDS011;7640;53.116;6.878;2023-06-19T11:27:19;9.10;;;8.15;;
15082;SDS011;7640;53.116;6.878;2023-06-19T11:29:58;9.65;;;7.80;;
15082;SDS011;7640;53.116;6.878;2023-06-19T11:32:30;9.05;;;8.15;;
15082;SDS011;7640;53.116;6.878;2023-06-19T11:35:04;8.98;;;8.07;;
15082;SDS011;7640;53.116;6.878;2023-06-19T11:37:35;10.00;;;8.60;;
15082;SDS011;7640;53.116;6.878;2023-06-19T11:40:05;9.07;;;8.27;;
15082;SDS011;7640;53.116;6.878;2023-06-19T11:42:45;9.27;;;8.32;;
15082;SDS011;7640;53.116;6.878;2023-06-19T11:45:17;9.73;;;8.75;;
15082;SDS011;7640;53.116;6.878;2023-06-19T11:47:45;9.75;;;8.82;;
15082;SDS011;7640;53.116;6.878;2023-06-19T11:50:15;7.88;;;7.18;;
15082;SDS011;7640;53.116;6.878;2023-06-19T11:52:46;8.55;;;7.75;;
15082;SDS011;7640;53.116;6.878;2023-06-19T11:55:14;7.93;;;7.13;;
15082;SDS011;7640;53.116;6.878;2023-06-19T11:57:43;8.45;;;7.65;;
15082;SDS011;7640;53.116;6.878;2023-06-19T12:00:13;9.30;;;8.38;;
15082;SDS011;7640;53.116;6.878;2023-06-19T12:02:44;8.20;;;7.38;;
15082;SDS011;7640;53.116;6.878;2023-06-19T12:05:14;7.85;;;6.95;;
15082;SDS011;7640;53.116;6.878;2023-06-19T12:07:43;8.15;;;7.35;;
15082;SDS011;7640;53.116;6.878;2023-06-19T12:10:15;8.23;;;7.43;;
15082;SDS011;7640;53.116;6.878;2023-06-19T12:12:43;7.75;;;7.10;;
15082;SDS011;7640;53.116;6.878;2023-06-19T12:15:12;8.93;;;8.10;;
15082;SDS011;7640;53.116;6.878;2023-06-19T12:17:42;8.52;;;7.65;;
15082;SDS011;7640;53.116;6.878;2023-06-19T12:20:11;9.50;;;8.60;;
15082;SDS011;7640;53.116;6.878;2023-06-19T12:22:40;9.77;;;8.80;;
15082;SDS011;7640;53.116;6.878;2023-06-19T12:25:09;9.60;;;8.75;;
15082;SDS011;7640;53.116;6.878;2023-06-19T12:27:38;8.77;;;7.97;;
15082;SDS011;7640;53.116;6.878;2023-06-19T12:30:08;8.45;;;7.65;;
15082;SDS011;7640;53.116;6.878;2023-06-19T12:32:38;9.60;;;8.60;;
15082;SDS011;7640;53.116;6.878;2023-06-19T12:35:08;9.40;;;8.40;;
15082;SDS011;7640;53.116;6.878;2023-06-19T12:37:37;8.80;;;7.90;;
15082;SDS011;7640;53.116;6.878;2023-06-19T12:40:06;8.63;;;7.80;;
15082;SDS011;7640;53.116;6.878;2023-06-19T12:42:38;8.80;;;7.82;;
15082;SDS011;7640;53.116;6.878;2023-06-19T12:45:13;11.48;;;10.27;;
15082;SDS011;7640;53.116;6.878;2023-06-19T12:47:41;10.05;;;9.15;;
15082;SDS011;7640;53.116;6.878;2023-06-19T12:50:14;11.80;;;9.02;;
15082;SDS011;7640;53.116;6.878;2023-06-19T12:52:42;9.32;;;8.50;;
15082;SDS011;7640;53.116;6.878;2023-06-19T12:55:12;8.63;;;7.82;;
15082;SDS011;7640;53.116;6.878;2023-06-19T12:57:42;8.63;;;7.82;;
15082;SDS011;7640;53.116;6.878;2023-06-19T13:00:12;9.35;;;8.05;;
15082;SDS011;7640;53.116;6.878;2023-06-19T13:02:41;8.50;;;7.70;;
15082;SDS011;7640;53.116;6.878;2023-06-19T13:05:14;8.00;;;7.35;;
15082;SDS011;7640;53.116;6.878;2023-06-19T13:07:43;10.15;;;8.02;;
15082;SDS011;7640;53.116;6.878;2023-06-19T13:10:12;9.57;;;8.65;;
15082;SDS011;7640;53.116;6.878;2023-06-19T13:12:40;8.73;;;7.93;;
15082;SDS011;7640;53.116;6.878;2023-06-19T13:15:10;8.30;;;7.60;;
15082;SDS011;7640;53.116;6.878;2023-06-19T13:17:39;9.07;;;8.18;;
15082;SDS011;7640;53.116;6.878;2023-06-19T13:20:10;7.90;;;7.10;;
15082;SDS011;7640;53.116;6.878;2023-06-19T13:22:42;8.65;;;7.85;;
15082;SDS011;7640;53.116;6.878;2023-06-19T13:25:10;9.68;;;8.20;;
15082;SDS011;7640;53.116;6.878;2023-06-19T13:27:39;9.13;;;7.50;;
15082;SDS011;7640;53.116;6.878;2023-06-19T13:30:09;7.82;;;7.13;;
15082;SDS011;7640;53.116;6.878;2023-06-19T13:32:43;8.13;;;7.43;;
15082;SDS011;7640;53.116;6.878;2023-06-19T13:35:12;7.90;;;7.15;;
15082;SDS011;7640;53.116;6.878;2023-06-19T13:37:42;7.78;;;7.03;;
15082;SDS011;7640;53.116;6.878;2023-06-19T13:40:10;7.75;;;6.95;;
15082;SDS011;7640;53.116;6.878;2023-06-19T13:42:41;7.50;;;6.70;;
15082;SDS011;7640;53.116;6.878;2023-06-19T13:45:10;7.90;;;7.07;;
15082;SDS011;7640;53.116;6.878;2023-06-19T13:47:40;7.50;;;6.90;;
15082;SDS011;7640;53.116;6.878;2023-06-19T13:50:12;7.03;;;6.32;;
15082;SDS011;7640;53.116;6.878;2023-06-19T13:52:46;6.60;;;6.10;;
15082;SDS011;7640;53.116;6.878;2023-06-19T13:55:14;6.43;;;5.93;;
15082;SDS011;7640;53.116;6.878;2023-06-19T13:57:43;6.45;;;5.82;;
15082;SDS011;7640;53.116;6.878;2023-06-19T14:00:12;6.68;;;6.05;;
15082;SDS011;7640;53.116;6.878;2023-06-19T14:02:41;6.80;;;6.20;;
15082;SDS011;7640;53.116;6.878;2023-06-19T14:05:10;7.50;;;6.80;;
15082;SDS011;7640;53.116;6.878;2023-06-19T14:07:40;7.53;;;6.78;;
15082;SDS011;7640;53.116;6.878;2023-06-19T14:10:11;7.50;;;6.80;;
15082;SDS011;7640;53.116;6.878;2023-06-19T14:12:40;8.77;;;7.13;;
15082;SDS011;7640;53.116;6.878;2023-06-19T14:15:09;7.40;;;6.70;;
15082;SDS011;7640;53.116;6.878;2023-06-19T14:17:40;6.88;;;6.20;;
15082;SDS011;7640;53.116;6.878;2023-06-19T14:20:10;7.60;;;6.90;;
15082;SDS011;7640;53.116;6.878;2023-06-19T14:22:39;8.48;;;7.72;;
15082;SDS011;7640;53.116;6.878;2023-06-19T14:25:08;7.75;;;7.05;;
15082;SDS011;7640;53.116;6.878;2023-06-19T14:27:41;7.03;;;6.32;;
15082;SDS011;7640;53.116;6.878;2023-06-19T14:30:12;7.65;;;6.68;;
15082;SDS011;7640;53.116;6.878;2023-06-19T14:32:42;7.85;;;7.00;;
15082;SDS011;7640;53.116;6.878;2023-06-19T14:35:11;7.97;;;7.18;;
15082;SDS011;7640;53.116;6.878;2023-06-19T14:37:39;6.65;;;6.05;;
15082;SDS011;7640;53.116;6.878;2023-06-19T14:40:08;9.07;;;7.35;;
15082;SDS011;7640;53.116;6.878;2023-06-19T14:42:40;7.03;;;6.28;;
15082;SDS011;7640;53.116;6.878;2023-06-19T14:45:09;6.97;;;6.18;;
15082;SDS011;7640;53.116;6.878;2023-06-19T14:47:38;7.30;;;6.60;;
15082;SDS011;7640;53.116;6.878;2023-06-19T14:50:08;6.38;;;5.60;;
15082;SDS011;7640;53.116;6.878;2023-06-19T14:52:37;5.90;;;5.30;;
15082;SDS011;7640;53.116;6.878;2023-06-19T14:55:06;5.72;;;5.18;;
15082;SDS011;7640;53.116;6.878;2023-06-19T14:57:37;7.03;;;6.25;;
15082;SDS011;7640;53.116;6.878;2023-06-19T15:00:06;7.13;;;6.20;;
15082;SDS011;7640;53.116;6.878;2023-06-19T15:02:36;5.22;;;4.82;;
15082;SDS011;7640;53.116;6.878;2023-06-19T15:05:07;6.20;;;5.47;;
15082;SDS011;7640;53.116;6.878;2023-06-19T15:07:36;5.95;;;5.35;;
15082;SDS011;7640;53.116;6.878;2023-06-19T15:10:05;5.65;;;5.15;;
15082;SDS011;7640;53.116;6.878;2023-06-19T15:12:34;5.80;;;5.20;;